Time;durP1;ratioP1;P1;durP2;ratioP2;P2;SDS_P1;SDS_P2;PMS_P1;PMS_P2;Temp;Humidity;BMP_temperature;BMP_pressure;BME280_temperature;BME280_humidity;BME280_pressure;Samples;Min_cycle;Max_cycle;Signal;HPM_P1;HPM_P2
2024/02/22 00:01:29;;;;;;;29.05;3.67;;;10.50;99.90;;;;;;5099851;28;20055;-71
2024/02/22 00:03:56;;;;;;;20.98;3.97;;;10.50;99.90;;;;;;5101628;28;20044;-70
2024/02/22 00:06:23;;;;;;;29.67;3.60;;;10.50;99.90;;;;;;5106313;28;20484;-71
2024/02/22 00:08:49;;;;;;;17.52;3.05;;;10.50;99.90;;;;;;5103701;28;20074;-71
2024/02/22 00:11:16;;;;;;;24.35;3.42;;;10.50;99.90;;;;;;5100106;28;20048;-72
2024/02/22 00:13:43;;;;;;;16.85;3.35;;;10.50;99.90;;;;;;5099366;28;20495;-72
2024/02/22 00:16:10;;;;;;;18.77;3.45;;;10.50;99.90;;;;;;5100053;28;20143;-71
2024/02/22 00:18:38;;;;;;;31.65;4.28;;;10.50;99.90;;;;;;5076519;28;20067;-72
2024/02/22 00:21:05;;;;;;;28.10;4.40;;;10.50;99.90;;;;;;5103966;28;20484;-72
2024/02/22 00:23:33;;;;;;;20.88;3.25;;;10.50;99.90;;;;;;5096120;28;20048;-72
2024/02/22 00:26:01;;;;;;;22.70;3.50;;;10.50;99.90;;;;;;5102684;28;20040;-72
2024/02/22 00:28:28;;;;;;;20.90;5.10;;;10.50;99.90;;;;;;5094301;28;20040;-71
2024/02/22 00:30:55;;;;;;;14.73;2.95;;;10.50;99.90;;;;;;5102999;28;20078;-72
2024/02/22 00:33:21;;;;;;;22.92;3.58;;;10.50;99.90;;;;;;5087759;28;20043;-72
2024/02/22 00:35:48;;;;;;;24.42;4.25;;;10.40;99.90;;;;;;5086927;28;20088;-72
2024/02/22 00:38:15;;;;;;;24.15;3.83;;;10.40;99.90;;;;;;5102628;28;20067;-72
2024/02/22 00:40:42;;;;;;;20.42;3.17;;;10.40;99.90;;;;;;5095500;28;20139;-70
2024/02/22 00:43:09;;;;;;;22.13;3.30;;;10.40;99.90;;;;;;5098738;28;20036;-71
2024/02/22 00:45:35;;;;;;;23.38;3.38;;;10.40;99.90;;;;;;5097208;28;20059;-73
2024/02/22 00:48:03;;;;;;;16.10;2.75;;;10.30;99.90;;;;;;5090338;28;20048;-72
2024/02/22 00:50:30;;;;;;;22.27;3.58;;;10.30;99.90;;;;;;5099227;28;20046;-73
2024/02/22 00:52:56;;;;;;;18.00;4.35;;;10.20;99.90;;;;;;5098080;28;20473;-70
2024/02/22 00:55:23;;;;;;;15.98;4.00;;;10.20;99.90;;;;;;5068812;28;20906;-72
2024/02/22 00:57:50;;;;;;;20.20;3.30;;;10.20;99.90;;;;;;5105604;28;20586;-71
2024/02/22 01:00:17;;;;;;;14.60;3.10;;;10.20;99.90;;;;;;5105401;28;20132;-70
2024/02/22 01:02:44;;;;;;;19.67;4.00;;;10.10;99.90;;;;;;5102851;28;20043;-72
2024/02/22 01:05:11;;;;;;;13.43;3.88;;;10.10;99.90;;;;;;5103092;28;20055;-71
2024/02/22 01:07:38;;;;;;;18.08;2.47;;;10.10;99.90;;;;;;5082625;28;20054;-70
2024/02/22 01:10:06;;;;;;;22.75;3.03;;;10.00;99.90;;;;;;5104742;28;20093;-70
2024/02/22 01:12:33;;;;;;;32.20;4.32;;;10.00;99.90;;;;;;5100825;28;20055;-70
2024/02/22 01:15:00;;;;;;;28.02;3.22;;;9.90;99.90;;;;;;5105981;28;20039;-72
2024/02/22 01:17:27;;;;;;;22.67;4.03;;;9.90;99.90;;;;;;5105718;28;20051;-71
2024/02/22 01:19:54;;;;;;;15.45;4.53;;;9.80;99.90;;;;;;5102203;28;20051;-72
2024/02/22 01:22:20;;;;;;;23.65;3.60;;;9.80;99.90;;;;;;5105526;28;20044;-72
2024/02/22 01:24:47;;;;;;;29.88;5.18;;;9.80;99.90;;;;;;5104708;28;20040;-71
2024/02/22 01:27:14;;;;;;;24.92;3.30;;;9.80;99.90;;;;;;5106759;28;20039;-71
2024/02/22 01:29:42;;;;;;;23.55;3.20;;;9.80;99.90;;;;;;5110732;28;20047;-71
2024/02/22 01:32:09;;;;;;;25.55;4.68;;;9.80;99.90;;;;;;5105929;28;20055;-71
2024/02/22 01:34:36;;;;;;;13.60;3.53;;;9.80;99.90;;;;;;5100699;28;20545;-72
2024/02/22 01:37:03;;;;;;;27.48;4.97;;;9.80;99.90;;;;;;5108359;28;20123;-71
2024/02/22 01:39:30;;;;;;;14.70;3.45;;;9.70;99.90;;;;;;5096058;28;20055;-71
2024/02/22 01:41:57;;;;;;;20.65;4.22;;;9.80;99.90;;;;;;5102768;28;20135;-72
2024/02/22 01:44:30;;;;;;;29.27;4.43;;;9.70;99.90;;;;;;5108436;28;20519;-71
2024/02/22 01:46:57;;;;;;;28.65;4.70;;;9.70;99.90;;;;;;5104453;28;20047;-71
2024/02/22 01:49:24;;;;;;;29.70;4.32;;;9.70;99.90;;;;;;5086593;28;20039;-71
2024/02/22 01:51:52;;;;;;;22.95;3.63;;;9.60;99.90;;;;;;5107264;28;20040;-71
2024/02/22 01:54:19;;;;;;;16.05;3.13;;;9.70;99.90;;;;;;5089137;28;20039;-71
2024/02/22 01:56:46;;;;;;;25.80;3.72;;;9.60;99.90;;;;;;5085590;28;20043;-71
2024/02/22 01:59:14;;;;;;;19.92;3.40;;;9.60;99.90;;;;;;5065172;28;20044;-71
2024/02/22 02:01:42;;;;;;;23.17;5.28;;;9.60;99.90;;;;;;5101355;28;20044;-70
2024/02/22 02:04:12;;;;;;;20.60;3.10;;;9.60;99.90;;;;;;5108337;28;20507;-70
2024/02/22 02:06:40;;;;;;;27.25;4.68;;;9.60;99.90;;;;;;5076920;28;20093;-71
2024/02/22 02:09:08;;;;;;;21.00;3.20;;;9.60;99.90;;;;;;5107122;28;20052;-71
2024/02/22 02:11:35;;;;;;;19.73;2.95;;;9.60;99.90;;;;;;5107372;28;20039;-71
2024/02/22 02:14:02;;;;;;;26.88;3.90;;;9.60;99.90;;;;;;5073956;28;20135;-71
2024/02/22 02:16:29;;;;;;;19.60;3.45;;;9.60;99.90;;;;;;5107539;28;20071;-70
2024/02/22 02:18:55;;;;;;;22.35;3.90;;;9.60;99.90;;;;;;5104717;28;20044;-71
2024/02/22 02:21:30;;;;;;;17.73;3.65;;;9.60;99.90;;;;;;5090046;28;20047;-71
2024/02/22 02:24:19;;;;;;;33.85;4.55;;;9.60;99.90;;;;;;5088246;28;20069;-71
2024/02/22 02:26:46;;;;;;;19.10;3.05;;;9.60;99.90;;;;;;5094980;28;20877;-70
2024/02/22 02:29:12;;;;;;;29.40;5.20;;;9.60;99.90;;;;;;5086919;28;20138;-72
2024/02/22 02:31:40;;;;;;;33.33;4.60;;;9.60;99.90;;;;;;5105119;28;20407;-70
2024/02/22 02:34:06;;;;;;;21.38;3.45;;;9.60;99.90;;;;;;5106634;28;20054;-71
2024/02/22 02:36:33;;;;;;;28.92;3.90;;;9.60;99.90;;;;;;5101646;28;20093;-71
2024/02/22 02:39:00;;;;;;;26.92;3.78;;;9.60;99.90;;;;;;5106452;28;20055;-70
2024/02/22 02:41:27;;;;;;;19.83;4.32;;;9.50;99.90;;;;;;5105571;28;20062;-70
2024/02/22 02:43:54;;;;;;;29.13;5.72;;;9.60;99.90;;;;;;5100482;28;20054;-71
2024/02/22 02:46:21;;;;;;;37.67;5.35;;;9.60;99.90;;;;;;5107642;28;20039;-71
2024/02/22 02:48:48;;;;;;;24.65;4.63;;;9.60;99.90;;;;;;5083699;28;20043;-71
2024/02/22 02:51:15;;;;;;;18.95;3.53;;;9.60;99.90;;;;;;5104619;28;20046;-71
2024/02/22 02:53:42;;;;;;;21.20;3.28;;;9.60;99.90;;;;;;5107908;28;20055;-71
2024/02/22 02:56:10;;;;;;;23.63;3.53;;;9.60;99.90;;;;;;5106726;28;20170;-71
2024/02/22 02:58:37;;;;;;;22.23;4.20;;;9.60;99.90;;;;;;5103681;28;20127;-71
2024/02/22 03:01:04;;;;;;;23.65;4.20;;;9.60;99.90;;;;;;5071683;28;20078;-71
2024/02/22 03:03:31;;;;;;;29.05;6.13;;;9.60;99.90;;;;;;5107145;28;20174;-72
2024/02/22 03:05:58;;;;;;;23.83;3.72;;;9.60;99.90;;;;;;5081983;28;20063;-71
2024/02/22 03:08:26;;;;;;;34.05;4.10;;;9.60;99.90;;;;;;5083424;28;20105;-71
2024/02/22 03:10:53;;;;;;;28.30;5.45;;;9.60;99.90;;;;;;5082090;28;20047;-71
2024/02/22 03:13:21;;;;;;;29.35;4.57;;;9.70;99.90;;;;;;5100206;28;20056;-71
2024/02/22 03:15:48;;;;;;;21.58;4.35;;;9.70;99.90;;;;;;5107492;28;20096;-71
2024/02/22 03:18:15;;;;;;;24.25;4.43;;;9.70;99.90;;;;;;5105755;28;20097;-71
2024/02/22 03:20:42;;;;;;;18.73;3.17;;;9.80;99.90;;;;;;5103484;28;20500;-71
2024/02/22 03:23:09;;;;;;;21.48;3.70;;;9.70;99.90;;;;;;5100522;28;20063;-70
2024/02/22 03:25:36;;;;;;;27.52;3.97;;;9.70;99.90;;;;;;5106345;28;20048;-72
2024/02/22 03:28:06;;;;;;;22.83;3.60;;;9.70;99.90;;;;;;5104234;28;20498;-71
2024/02/22 03:30:33;;;;;;;19.70;3.88;;;9.70;99.90;;;;;;5087508;28;20044;-72
2024/02/22 03:33:01;;;;;;;17.00;3.70;;;9.70;99.90;;;;;;5104745;28;20484;-71
2024/02/22 03:35:29;;;;;;;23.75;4.13;;;9.80;99.90;;;;;;5103608;28;20040;-72
2024/02/22 03:37:57;;;;;;;14.20;3.08;;;9.80;99.90;;;;;;5105885;28;20044;-70
2024/02/22 03:40:24;;;;;;;19.38;2.95;;;9.80;99.90;;;;;;5101448;28;20051;-71
2024/02/22 03:42:50;;;;;;;18.67;3.20;;;9.80;99.90;;;;;;5102554;28;20048;-71
2024/02/22 03:45:17;;;;;;;25.60;4.05;;;9.80;99.90;;;;;;5098616;28;20039;-70
2024/02/22 03:47:44;;;;;;;21.80;3.58;;;9.80;99.90;;;;;;5100730;28;20803;-70
2024/02/22 03:50:11;;;;;;;20.38;3.08;;;9.80;99.90;;;;;;5102882;28;20040;-70
2024/02/22 03:52:38;;;;;;;22.08;3.60;;;9.80;99.90;;;;;;5103941;28;20047;-70
2024/02/22 03:55:08;;;;;;;13.85;2.97;;;9.80;99.90;;;;;;5106771;28;20400;-71
2024/02/22 03:57:35;;;;;;;24.77;5.30;;;9.80;99.90;;;;;;5102194;28;20113;-71
2024/02/22 04:00:06;;;;;;;19.13;3.13;;;9.80;99.90;;;;;;5105029;28;20101;-70
2024/02/22 04:02:33;;;;;;;19.10;2.90;;;9.80;99.90;;;;;;5101122;28;20051;-70
2024/02/22 04:05:00;;;;;;;15.13;3.17;;;9.70;99.90;;;;;;5105630;28;20051;-71
2024/02/22 04:07:27;;;;;;;16.90;3.00;;;9.70;99.90;;;;;;5104149;28;20562;-70
2024/02/22 04:09:55;;;;;;;15.68;2.65;;;9.80;99.90;;;;;;5079449;28;20048;-71
2024/02/22 04:12:22;;;;;;;13.00;2.63;;;9.80;99.90;;;;;;5103957;28;20231;-71
2024/02/22 04:14:49;;;;;;;18.38;2.97;;;9.70;99.90;;;;;;5098013;28;20043;-71
2024/02/22 04:17:15;;;;;;;15.60;2.47;;;9.80;99.90;;;;;;5081696;28;20044;-70
2024/02/22 04:19:42;;;;;;;18.90;2.80;;;9.80;99.90;;;;;;5083438;28;20411;-70
2024/02/22 04:22:09;;;;;;;15.07;2.58;;;9.90;99.90;;;;;;5103734;28;20128;-70
2024/02/22 04:24:36;;;;;;;17.30;2.58;;;9.90;99.90;;;;;;5104193;28;20051;-70
2024/02/22 04:27:03;;;;;;;17.15;3.45;;;9.90;99.90;;;;;;5105645;28;20055;-70
2024/02/22 04:29:29;;;;;;;23.63;3.72;;;9.90;99.90;;;;;;5100572;28;20048;-70
2024/02/22 04:31:57;;;;;;;21.45;3.13;;;10.00;99.90;;;;;;5101403;28;20044;-70
2024/02/22 04:34:23;;;;;;;19.85;3.22;;;10.00;99.90;;;;;;5104099;28;20047;-70
2024/02/22 04:36:50;;;;;;;22.23;3.35;;;10.00;99.90;;;;;;5090846;28;20520;-70
2024/02/22 04:39:17;;;;;;;16.17;2.92;;;10.00;99.90;;;;;;5098045;28;20050;-70
2024/02/22 04:41:44;;;;;;;20.77;3.25;;;10.00;99.90;;;;;;5104294;28;20175;-70
2024/02/22 04:44:11;;;;;;;21.48;3.63;;;9.90;99.90;;;;;;5076251;28;20044;-71
2024/02/22 04:46:39;;;;;;;15.77;3.50;;;9.90;99.90;;;;;;5100347;28;20044;-69
2024/02/22 04:49:09;;;;;;;22.20;5.43;;;9.90;99.90;;;;;;5101077;28;20043;-70
2024/02/22 04:51:37;;;;;;;13.93;2.42;;;9.90;99.90;;;;;;5095012;28;20253;-71
2024/02/22 04:54:04;;;;;;;14.82;2.30;;;9.90;99.90;;;;;;5094947;28;20079;-70
2024/02/22 04:56:30;;;;;;;15.13;3.30;;;9.80;99.90;;;;;;5098227;28;20071;-70
2024/02/22 04:58:57;;;;;;;17.60;2.88;;;9.80;99.90;;;;;;5097846;28;20747;-71
2024/02/22 05:01:26;;;;;;;16.00;3.08;;;9.80;99.90;;;;;;5105176;28;20036;-70
2024/02/22 05:03:53;;;;;;;18.20;2.58;;;9.80;99.90;;;;;;5104405;28;20054;-70
2024/02/22 05:06:20;;;;;;;16.45;2.55;;;9.80;99.90;;;;;;5105371;28;20048;-71
2024/02/22 05:08:47;;;;;;;14.10;3.05;;;9.80;99.90;;;;;;5106153;28;20055;-70
2024/02/22 05:11:14;;;;;;;9.85;2.30;;;9.80;99.90;;;;;;5104735;28;20040;-71
2024/02/22 05:13:44;;;;;;;19.48;2.35;;;9.90;99.90;;;;;;5102639;28;20075;-71
2024/02/22 05:16:11;;;;;;;11.70;2.65;;;9.90;99.90;;;;;;5103893;28;20040;-70
2024/02/22 05:18:38;;;;;;;16.00;2.45;;;10.00;99.90;;;;;;5090911;28;20051;-70
2024/02/22 05:21:05;;;;;;;14.20;2.45;;;10.00;99.90;;;;;;5108294;28;20496;-71
2024/02/22 05:23:32;;;;;;;16.10;2.17;;;10.00;99.90;;;;;;5074902;28;20085;-71
2024/02/22 05:25:59;;;;;;;12.57;2.20;;;10.00;99.90;;;;;;5077102;28;20054;-70
2024/02/22 05:28:26;;;;;;;12.13;2.70;;;10.00;99.90;;;;;;5108318;28;20047;-71
2024/02/22 05:30:53;;;;;;;14.18;2.45;;;10.00;99.90;;;;;;5106432;28;20046;-70
2024/02/22 05:33:20;;;;;;;14.48;1.92;;;10.00;99.90;;;;;;5101650;28;20040;-70
2024/02/22 05:35:48;;;;;;;13.10;1.95;;;10.00;99.90;;;;;;5104599;28;20462;-70
2024/02/22 05:38:14;;;;;;;13.27;2.53;;;10.00;99.90;;;;;;5106761;28;20044;-71
2024/02/22 05:40:42;;;;;;;10.82;2.78;;;10.00;99.90;;;;;;5103520;28;20162;-67
2024/02/22 05:43:09;;;;;;;12.68;2.30;;;10.00;99.90;;;;;;5104402;28;20054;-71
2024/02/22 05:45:45;;;;;;;14.85;3.80;;;10.00;99.90;;;;;;5087515;28;20491;-71
2024/02/22 05:48:13;;;;;;;11.98;2.28;;;10.00;99.90;;;;;;5099225;28;20055;-71
2024/02/22 05:50:40;;;;;;;15.00;2.50;;;9.90;99.90;;;;;;5102834;28;20044;-70
2024/02/22 05:53:07;;;;;;;18.08;3.88;;;9.90;99.90;;;;;;5106160;28;20055;-69
2024/02/22 05:55:34;;;;;;;9.13;1.80;;;9.90;99.90;;;;;;5087429;28;20062;-70
2024/02/22 05:58:04;;;;;;;14.27;2.63;;;10.00;99.90;;;;;;5108280;28;20060;-70
2024/02/22 06:00:31;;;;;;;15.50;2.25;;;10.00;99.90;;;;;;5107546;28;20074;-71
2024/02/22 06:02:58;;;;;;;7.53;2.08;;;10.00;99.90;;;;;;5100190;28;20089;-70
2024/02/22 06:05:26;;;;;;;10.02;2.05;;;10.00;99.90;;;;;;5083291;28;20051;-70
2024/02/22 06:07:54;;;;;;;17.70;2.65;;;10.00;99.90;;;;;;5101743;28;20429;-71
2024/02/22 06:10:22;;;;;;;8.20;1.77;;;10.00;99.90;;;;;;5105682;28;20048;-70
2024/02/22 06:12:48;;;;;;;14.93;2.00;;;10.00;99.90;;;;;;5080246;28;20043;-69
2024/02/22 06:15:16;;;;;;;10.57;2.15;;;10.00;99.90;;;;;;5108201;28;20047;-69
2024/02/22 06:17:42;;;;;;;12.40;3.03;;;10.10;99.90;;;;;;5106648;28;20122;-69
2024/02/22 06:20:09;;;;;;;11.15;2.40;;;10.10;99.90;;;;;;5103216;28;20050;-68
2024/02/22 06:22:36;;;;;;;11.77;2.45;;;10.10;99.90;;;;;;5102184;28;20117;-68
2024/02/22 06:25:03;;;;;;;13.82;1.80;;;10.10;99.90;;;;;;5107343;28;20663;-69
2024/02/22 06:27:31;;;;;;;15.05;3.50;;;10.10;99.90;;;;;;5093651;28;20044;-70
2024/02/22 06:29:58;;;;;;;9.32;2.65;;;10.10;99.90;;;;;;5101869;28;20065;-68
2024/02/22 06:32:26;;;;;;;14.55;2.05;;;10.10;99.90;;;;;;5092919;28;20143;-69
2024/02/22 06:34:53;;;;;;;9.00;2.88;;;10.10;99.90;;;;;;5107889;28;20048;-70
2024/02/22 06:37:20;;;;;;;10.93;1.95;;;10.10;99.90;;;;;;5106152;28;20381;-70
2024/02/22 06:39:47;;;;;;;17.88;3.75;;;10.20;99.90;;;;;;5106223;28;20126;-70
2024/02/22 06:42:14;;;;;;;12.27;1.88;;;10.10;99.90;;;;;;5105769;28;20508;-71
2024/02/22 06:44:43;;;;;;;14.43;1.73;;;10.10;99.90;;;;;;5100341;28;20101;-72
2024/02/22 06:47:10;;;;;;;14.35;2.10;;;10.10;99.90;;;;;;5107316;28;20100;-70
2024/02/22 06:49:37;;;;;;;13.40;2.10;;;10.00;99.90;;;;;;5097493;28;20054;-70
2024/02/22 06:52:05;;;;;;;9.07;1.73;;;10.00;99.90;;;;;;5080214;28;20558;-70
2024/02/22 06:54:33;;;;;;;11.68;1.70;;;10.00;99.90;;;;;;5099617;28;20055;-71
2024/02/22 06:57:00;;;;;;;6.32;1.95;;;10.00;99.90;;;;;;5100550;28;20055;-71
2024/02/22 06:59:26;;;;;;;9.98;1.88;;;10.00;99.90;;;;;;5102544;28;20459;-70
2024/02/22 07:01:53;;;;;;;11.88;2.20;;;10.00;99.90;;;;;;5104072;28;20100;-73
2024/02/22 07:04:20;;;;;;;14.75;2.30;;;10.00;99.90;;;;;;5097164;28;20514;-70
2024/02/22 07:06:47;;;;;;;10.20;2.95;;;10.00;99.90;;;;;;5107062;28;20070;-70
2024/02/22 07:09:14;;;;;;;11.05;2.25;;;10.10;99.90;;;;;;5099575;28;20561;-70
2024/02/22 07:11:41;;;;;;;10.00;2.28;;;10.10;99.90;;;;;;5105046;28;20668;-70
2024/02/22 07:14:08;;;;;;;10.35;1.90;;;10.10;99.90;;;;;;5069307;28;20802;-71
2024/02/22 07:16:35;;;;;;;8.80;2.25;;;10.10;99.90;;;;;;5106235;28;20084;-71
2024/02/22 07:19:01;;;;;;;9.10;1.92;;;10.10;99.90;;;;;;5086833;28;20083;-70
2024/02/22 07:21:33;;;;;;;8.38;2.10;;;10.10;99.90;;;;;;5096605;28;20039;-70
2024/02/22 07:24:03;;;;;;;11.00;2.40;;;10.20;99.90;;;;;;5104086;28;20051;-70
2024/02/22 07:26:30;;;;;;;16.27;2.40;;;10.20;99.90;;;;;;5087335;28;20587;-71
2024/02/22 07:29:02;;;;;;;12.10;2.28;;;10.20;99.90;;;;;;5098386;28;20132;-70
2024/02/22 07:31:29;;;;;;;12.07;2.40;;;10.20;99.90;;;;;;5100268;28;20055;-70
2024/02/22 07:33:56;;;;;;;12.05;2.45;;;10.30;99.90;;;;;;5099762;28;20130;-69
2024/02/22 07:36:24;;;;;;;15.02;2.45;;;10.30;99.90;;;;;;5106325;28;20039;-71
2024/02/22 07:38:51;;;;;;;6.90;1.83;;;10.30;99.90;;;;;;5102459;28;20047;-70
2024/02/22 07:41:18;;;;;;;9.98;2.05;;;10.30;99.90;;;;;;5095936;28;20107;-69
2024/02/22 07:43:46;;;;;;;11.60;1.65;;;10.30;99.90;;;;;;5104776;28;20047;-68
2024/02/22 07:46:14;;;;;;;6.85;1.50;;;10.30;99.90;;;;;;5105782;28;20047;-68
2024/02/22 07:48:41;;;;;;;9.85;1.85;;;10.30;99.90;;;;;;5099153;28;20595;-69
2024/02/22 07:51:09;;;;;;;7.40;3.35;;;10.30;99.90;;;;;;5105388;28;20051;-68
2024/02/22 07:53:36;;;;;;;4.78;1.23;;;10.30;99.90;;;;;;5106483;28;20055;-69
2024/02/22 07:56:07;;;;;;;4.40;1.38;;;10.40;99.90;;;;;;5084236;28;20075;-68
2024/02/22 07:58:47;;;;;;;8.40;1.80;;;10.40;99.90;;;;;;5100789;28;20058;-68
2024/02/22 08:01:14;;;;;;;4.32;1.23;;;10.40;99.90;;;;;;5104681;28;20043;-67
2024/02/22 08:03:41;;;;;;;6.22;1.25;;;10.40;99.90;;;;;;5083224;28;20532;-69
2024/02/22 08:06:09;;;;;;;3.38;0.80;;;10.30;99.90;;;;;;5102392;28;20039;-68
2024/02/22 08:08:36;;;;;;;9.10;1.08;;;10.30;99.90;;;;;;5084583;28;20043;-69
2024/02/22 08:11:03;;;;;;;1.52;0.73;;;10.30;99.90;;;;;;5104761;28;20397;-69
2024/02/22 08:13:30;;;;;;;3.85;0.90;;;10.40;99.90;;;;;;5092059;28;20171;-69
2024/02/22 08:16:03;;;;;;;1.33;0.68;;;10.40;99.90;;;;;;5104824;28;20466;-69
2024/02/22 08:18:30;;;;;;;3.92;0.55;;;10.40;99.90;;;;;;5078592;28;20157;-70
2024/02/22 08:20:57;;;;;;;1.58;0.50;;;10.40;99.90;;;;;;5104295;28;20397;-69
2024/02/22 08:23:25;;;;;;;0.75;0.63;;;10.40;99.90;;;;;;5102698;28;20475;-70
2024/02/22 08:25:52;;;;;;;1.00;0.47;;;10.50;99.90;;;;;;5103398;28;20050;-70
2024/02/22 08:28:19;;;;;;;0.55;0.43;;;10.50;99.90;;;;;;5102872;28;20069;-70
2024/02/22 08:30:47;;;;;;;0.93;0.47;;;10.50;99.90;;;;;;5104064;28;20273;-69
2024/02/22 08:33:14;;;;;;;0.60;0.40;;;10.50;99.90;;;;;;5101843;28;20054;-70
2024/02/22 08:35:41;;;;;;;0.73;0.63;;;10.60;99.90;;;;;;5098935;28;20075;-70
2024/02/22 08:38:09;;;;;;;0.30;0.30;;;10.60;99.90;;;;;;5099356;28;20517;-70
2024/02/22 08:40:36;;;;;;;0.32;0.25;;;10.70;99.90;;;;;;5081444;28;20047;-70
2024/02/22 08:43:08;;;;;;;1.63;0.17;;;10.70;99.90;;;;;;5085045;28;20058;-70
2024/02/22 08:45:35;;;;;;;0.75;0.30;;;10.80;99.90;;;;;;5104068;28;20504;-70
2024/02/22 08:48:02;;;;;;;1.92;0.50;;;10.80;99.90;;;;;;5103391;28;20052;-70
2024/02/22 08:50:29;;;;;;;0.55;0.47;;;10.80;99.90;;;;;;5104881;28;20131;-71
2024/02/22 08:52:56;;;;;;;1.48;0.68;;;10.90;99.90;;;;;;5102053;28;20139;-71
2024/02/22 08:55:24;;;;;;;1.15;0.70;;;10.90;99.90;;;;;;5072240;28;20067;-70
2024/02/22 08:57:52;;;;;;;1.92;1.40;;;10.80;99.90;;;;;;5067272;28;20055;-70
2024/02/22 09:00:21;;;;;;;1.30;0.70;;;10.80;99.90;;;;;;5098243;28;20043;-70
2024/02/22 09:02:48;;;;;;;0.95;0.85;;;10.90;99.90;;;;;;5099217;28;20123;-71
2024/02/22 09:05:16;;;;;;;1.98;1.20;;;10.90;99.90;;;;;;5092561;28;20051;-69
2024/02/22 09:07:43;;;;;;;1.73;1.05;;;10.90;99.90;;;;;;5099186;28;20135;-69
2024/02/22 09:10:10;;;;;;;0.73;0.65;;;11.00;99.90;;;;;;5102356;28;20044;-69
2024/02/22 09:12:40;;;;;;;1.83;0.77;;;11.00;99.90;;;;;;5078462;28;20539;-70
2024/02/22 09:15:14;;;;;;;3.67;0.70;;;11.00;99.90;;;;;;5081761;28;20526;-72
2024/02/22 09:17:41;;;;;;;2.75;0.68;;;11.00;99.90;;;;;;5080834;28;20147;-72
2024/02/22 09:20:08;;;;;;;1.73;0.85;;;10.90;99.90;;;;;;5097171;28;20075;-73
2024/02/22 09:22:35;;;;;;;2.00;0.85;;;10.80;99.90;;;;;;5100320;28;20047;-74
2024/02/22 09:25:06;;;;;;;1.90;1.02;;;10.80;99.90;;;;;;5098833;28;20060;-74
2024/02/22 09:27:33;;;;;;;4.38;0.98;;;10.80;99.90;;;;;;5097519;28;20094;-75
2024/02/22 09:30:03;;;;;;;1.42;0.60;;;10.80;99.90;;;;;;5103764;28;20048;-74
2024/02/22 09:32:31;;;;;;;2.60;0.80;;;10.70;99.90;;;;;;5097135;28;20115;-74
2024/02/22 09:34:59;;;;;;;1.58;0.68;;;10.80;99.90;;;;;;5098977;28;20047;-73
2024/02/22 09:37:27;;;;;;;0.98;0.30;;;10.80;99.90;;;;;;5099500;28;20051;-72
2024/02/22 09:39:54;;;;;;;1.40;0.47;;;10.90;99.90;;;;;;5100281;28;20075;-72
2024/02/22 09:42:26;;;;;;;2.13;0.60;;;11.00;99.90;;;;;;5104244;28;20124;-73
2024/02/22 09:44:55;;;;;;;0.22;0.20;;;11.00;99.90;;;;;;5102210;28;20047;-72
2024/02/22 09:47:22;;;;;;;0.20;0.20;;;10.90;99.90;;;;;;5099739;28;20147;-72
2024/02/22 09:49:49;;;;;;;0.30;0.20;;;10.90;99.90;;;;;;5083844;28;20082;-73
2024/02/22 09:52:16;;;;;;;0.55;0.38;;;11.00;99.90;;;;;;5098750;28;20088;-72
2024/02/22 09:54:44;;;;;;;0.90;0.85;;;11.00;99.90;;;;;;5105508;28;20047;-72
2024/02/22 09:57:11;;;;;;;0.52;0.30;;;11.10;99.90;;;;;;5106747;28;20070;-71
2024/02/22 09:59:39;;;;;;;0.32;0.25;;;11.20;99.90;;;;;;5087160;28;20213;-72
2024/02/22 10:02:07;;;;;;;0.90;0.35;;;11.20;99.90;;;;;;5086846;28;20059;-72
2024/02/22 10:04:34;;;;;;;0.28;0.20;;;11.30;99.90;;;;;;5100862;28;20051;-72
2024/02/22 10:07:02;;;;;;;0.60;0.38;;;11.30;99.90;;;;;;5105089;28;20062;-72
2024/02/22 10:09:29;;;;;;;0.68;0.35;;;11.40;99.90;;;;;;5083588;28;20082;-73
2024/02/22 10:11:56;;;;;;;0.57;0.40;;;11.30;99.90;;;;;;5076759;28;20051;-72
2024/02/22 10:14:24;;;;;;;0.63;0.40;;;11.30;99.90;;;;;;5103234;28;20058;-72
2024/02/22 10:16:51;;;;;;;0.40;0.30;;;11.30;99.90;;;;;;5105687;28;20391;-72
2024/02/22 10:19:18;;;;;;;0.73;0.60;;;11.30;99.90;;;;;;5105045;28;20044;-72
2024/02/22 10:21:46;;;;;;;0.30;0.30;;;11.40;99.90;;;;;;5085196;28;20131;-73
2024/02/22 10:24:13;;;;;;;0.68;0.60;;;11.50;99.90;;;;;;5101571;28;20128;-71
2024/02/22 10:26:41;;;;;;;0.47;0.47;;;11.50;99.90;;;;;;5105164;28;20036;-72
2024/02/22 10:29:11;;;;;;;0.35;0.30;;;11.60;99.90;;;;;;5083935;28;20050;-72
2024/02/22 10:31:47;;;;;;;0.43;0.40;;;11.60;99.90;;;;;;5083186;28;20066;-71
2024/02/22 10:34:14;;;;;;;1.13;0.40;;;11.60;99.90;;;;;;5105044;28;20070;-73
2024/02/22 10:36:42;;;;;;;0.50;0.30;;;11.60;99.90;;;;;;5064969;28;20856;-73
2024/02/22 10:39:09;;;;;;;0.38;0.38;;;11.60;99.90;;;;;;5096308;28;20048;-72
2024/02/22 10:41:37;;;;;;;1.83;0.30;;;11.60;99.90;;;;;;5085225;28;20096;-71
2024/02/22 10:44:04;;;;;;;0.20;0.20;;;11.70;99.90;;;;;;5077904;28;20101;-71
2024/02/22 10:46:35;;;;;;;0.30;0.30;;;11.60;99.90;;;;;;5103607;28;20044;-71
2024/02/22 10:49:11;;;;;;;0.22;0.20;;;11.70;99.90;;;;;;5103039;28;20101;-71
2024/02/22 10:51:39;;;;;;;3.28;1.45;;;11.70;99.90;;;;;;5071639;28;20048;-72
2024/02/22 10:54:09;;;;;;;0.82;0.52;;;11.70;99.90;;;;;;5086843;28;20537;-73
2024/02/22 10:56:40;;;;;;;0.20;0.10;;;11.90;99.90;;;;;;5087935;28;20043;-74
2024/02/22 10:59:08;;;;;;;0.32;0.30;;;11.90;99.90;;;;;;5084141;28;20067;-70
2024/02/22 11:01:37;;;;;;;0.88;0.22;;;11.90;99.90;;;;;;5085481;28;20071;-72
2024/02/22 11:04:04;;;;;;;0.35;0.30;;;12.00;99.90;;;;;;5048773;28;20593;-72
2024/02/22 11:06:46;;;;;;;0.30;0.30;;;12.00;99.90;;;;;;5084162;28;20048;-71
2024/02/22 11:09:25;;;;;;;2.83;0.55;;;12.00;99.90;;;;;;5072032;28;20062;-70
2024/02/22 11:11:52;;;;;;;3.15;0.60;;;12.00;99.90;;;;;;5083133;28;20068;-70
2024/02/22 11:14:31;;;;;;;2.03;0.63;;;12.00;99.90;;;;;;5085765;28;20059;-71
2024/02/22 11:17:08;;;;;;;2.35;1.73;;;12.10;99.90;;;;;;5084097;28;20063;-70
2024/02/22 11:19:35;;;;;;;5.38;0.55;;;12.10;99.90;;;;;;5078944;28;20079;-72
2024/02/22 11:22:12;;;;;;;0.82;0.35;;;12.20;99.90;;;;;;5082229;28;20055;-70
2024/02/22 11:24:39;;;;;;;4.38;0.40;;;12.20;99.90;;;;;;5081106;28;20557;-71
2024/02/22 11:27:06;;;;;;;4.78;0.75;;;12.30;99.90;;;;;;5082105;28;20048;-71
2024/02/22 11:29:33;;;;;;;3.30;0.88;;;12.30;99.90;;;;;;5084646;28;20131;-71
2024/02/22 11:32:00;;;;;;;1.48;0.50;;;12.30;99.90;;;;;;5085382;28;20479;-71
2024/02/22 11:34:28;;;;;;;2.72;0.35;;;12.30;99.90;;;;;;5081414;28;20084;-71
2024/02/22 11:36:56;;;;;;;1.08;0.40;;;12.20;99.90;;;;;;5084516;28;20044;-71
2024/02/22 11:39:23;;;;;;;1.50;0.57;;;12.30;99.90;;;;;;5052744;28;20040;-71
2024/02/22 11:41:50;;;;;;;1.15;0.45;;;12.30;99.90;;;;;;5083846;28;20052;-71
2024/02/22 11:44:16;;;;;;;1.95;0.47;;;12.20;99.90;;;;;;5084958;28;20044;-71
2024/02/22 11:46:44;;;;;;;0.60;0.38;;;12.20;99.90;;;;;;5085928;28;20054;-71
2024/02/22 11:49:11;;;;;;;3.30;0.50;;;12.20;99.90;;;;;;5085930;28;20083;-71
2024/02/22 11:51:40;;;;;;;0.65;0.40;;;12.20;99.90;;;;;;5077645;28;20076;-70
2024/02/22 11:54:07;;;;;;;1.85;0.40;;;12.20;99.90;;;;;;5081952;28;20060;-71
2024/02/22 11:56:35;;;;;;;1.63;0.32;;;12.10;99.90;;;;;;5078930;28;20138;-70
2024/02/22 11:59:02;;;;;;;5.15;0.65;;;12.20;99.90;;;;;;5084318;28;20097;-70
2024/02/22 12:01:29;;;;;;;3.95;0.77;;;12.20;99.90;;;;;;5080599;28;20127;-69
2024/02/22 12:03:56;;;;;;;3.10;0.98;;;12.20;99.90;;;;;;5083641;28;20060;-71
2024/02/22 12:06:23;;;;;;;4.35;0.73;;;12.20;99.90;;;;;;5072675;28;20459;-70
2024/02/22 12:08:50;;;;;;;1.13;0.40;;;12.10;99.90;;;;;;5076952;28;20129;-71
2024/02/22 12:11:18;;;;;;;1.20;0.50;;;11.20;99.90;;;;;;5082875;28;20136;-72
2024/02/22 12:13:55;;;;;;;0.52;0.30;;;10.30;99.90;;;;;;5085573;28;20118;-71
2024/02/22 12:16:21;;;;;;;1.30;0.45;;;9.90;99.90;;;;;;5078603;28;20512;-71
2024/02/22 12:18:50;;;;;;;1.75;0.30;;;9.40;99.90;;;;;;5083041;28;20062;-71
2024/02/22 12:21:19;;;;;;;0.63;0.40;;;9.00;99.90;;;;;;5069970;28;20079;-70
2024/02/22 12:23:46;;;;;;;2.67;0.30;;;8.90;99.90;;;;;;5083141;28;20056;-71
2024/02/22 12:26:18;;;;;;;0.50;0.30;;;8.90;99.90;;;;;;5080408;28;20298;-70
2024/02/22 12:28:49;;;;;;;2.03;0.50;;;8.90;99.90;;;;;;5083277;28;20052;-70
2024/02/22 12:31:17;;;;;;;0.40;0.30;;;9.00;99.90;;;;;;5071823;28;20539;-70
2024/02/22 12:33:47;;;;;;;5.20;0.57;;;8.90;99.90;;;;;;5083646;28;20057;-70
2024/02/22 12:36:14;;;;;;;3.03;0.70;;;8.90;99.90;;;;;;5083398;28;20055;-70
2024/02/22 12:38:41;;;;;;;1.58;0.65;;;8.90;99.90;;;;;;5079395;28;20056;-71
2024/02/22 12:41:08;;;;;;;1.52;0.43;;;8.90;99.90;;;;;;5083039;28;20074;-70
2024/02/22 12:43:35;;;;;;;0.43;0.30;;;9.00;99.90;;;;;;5080901;28;20097;-70
2024/02/22 12:46:02;;;;;;;0.77;0.40;;;9.10;99.90;;;;;;5079157;28;20051;-71
2024/02/22 12:48:30;;;;;;;1.20;0.50;;;9.00;99.90;;;;;;5078128;28;20552;-69